sensor_id;sensor_type;location;lat;lon;timestamp;pressure;altitude;pressure_sealevel;temperature;humidity
19674;BME280;9986;50.610;7.230;2024-03-06T00:06:08;-9172.96;;;6.96;100.00
19674;BME280;9986;50.610;7.230;2024-03-06T00:43:23;-16778.31;;;6.39;100.00
19674;BME280;9986;50.610;7.230;2024-03-06T00:56:29;-15482.15;;;6.27;100.00
19674;BME280;9986;50.610;7.230;2024-03-06T01:07:02;-15636.24;;;5.84;100.00
19674;BME280;9986;50.610;7.230;2024-03-06T01:12:15;-18379.88;;;5.71;100.00
19674;BME280;9986;50.610;7.230;2024-03-06T01:17:26;-19513.85;;;5.88;100.00
19674;BME280;9986;50.610;7.230;2024-03-06T01:22:39;-14829.18;;;5.91;100.00
19674;BME280;9986;50.610;7.230;2024-03-06T01:27:52;-9486.36;;;5.53;100.00
19674;BME280;9986;50.610;7.230;2024-03-06T01:38:23;-10294.58;;;5.43;100.00
19674;BME280;9986;50.610;7.230;2024-03-06T01:46:20;-13847.17;;;5.12;100.00
19674;BME280;9986;50.610;7.230;2024-03-06T01:54:14;-17237.14;;;5.11;100.00
19674;BME280;9986;50.610;7.230;2024-03-06T02:10:11;-9643.36;;;4.93;100.00
19674;BME280;9986;50.610;7.230;2024-03-06T02:15:25;-8511.26;;;4.90;100.00
19674;BME280;9986;50.610;7.230;2024-03-06T02:28:36;-13515.84;;;4.55;100.00
19674;BME280;9986;50.610;7.230;2024-03-06T02:33:49;-17864.70;;;4.29;100.00
19674;BME280;9986;50.610;7.230;2024-03-06T02:54:51;-11737.94;;;4.36;100.00
19674;BME280;9986;50.610;7.230;2024-03-06T03:05:33;-12707.90;;;4.48;100.00
19674;BME280;9986;50.610;7.230;2024-03-06T03:10:46;-15772.63;;;4.45;100.00
19674;BME280;9986;50.610;7.230;2024-03-06T03:18:33;-18831.27;;;4.30;100.00
19674;BME280;9986;50.610;7.230;2024-03-06T03:23:46;-20116.41;;;4.18;100.00
19674;BME280;9986;50.610;7.230;2024-03-06T03:29:01;-21563.88;;;4.15;100.00
19674;BME280;9986;50.610;7.230;2024-03-06T03:39:31;-20285.14;;;4.48;100.00
19674;BME280;9986;50.610;7.230;2024-03-06T03:44:44;-18353.66;;;4.55;100.00
19674;BME280;9986;50.610;7.230;2024-03-06T04:00:34;-15131.07;;;4.65;100.00
19674;BME280;9986;50.610;7.230;2024-03-06T04:13:48;-14003.83;;;4.80;100.00
19674;BME280;9986;50.610;7.230;2024-03-06T04:24:26;-16747.05;;;4.81;100.00
19674;BME280;9986;50.610;7.230;2024-03-06T04:32:17;-19324.56;;;4.72;100.00
19674;BME280;9986;50.610;7.230;2024-03-06T04:42:53;-18518.87;;;4.72;100.00
19674;BME280;9986;50.610;7.230;2024-03-06T04:53:32;-18837.29;;;4.56;100.00
19674;BME280;9986;50.610;7.230;2024-03-06T04:58:45;-19001.45;;;4.68;100.00
19674;BME280;9986;50.610;7.230;2024-03-06T05:09:13;-15453.55;;;4.64;100.00
19674;BME280;9986;50.610;7.230;2024-03-06T05:17:04;-15937.09;;;4.62;100.00
19674;BME280;9986;50.610;7.230;2024-03-06T05:22:17;-18514.12;;;4.52;100.00
19674;BME280;9986;50.610;7.230;2024-03-06T05:27:31;-20287.44;;;4.57;100.00
19674;BME280;9986;50.610;7.230;2024-03-06T05:32:45;-20127.77;;;4.62;100.00
19674;BME280;9986;50.610;7.230;2024-03-06T05:40:36;-19640.23;;;4.45;100.00
19674;BME280;9986;50.610;7.230;2024-03-06T05:48:31;-20448.75;;;4.58;100.00
19674;BME280;9986;50.610;7.230;2024-03-06T05:59:01;-19799.05;;;4.36;100.00
19674;BME280;9986;50.610;7.230;2024-03-06T06:12:16;-17384.38;;;4.44;100.00
19674;BME280;9986;50.610;7.230;2024-03-06T06:25:38;-14320.14;;;4.39;100.00
19674;BME280;9986;50.610;7.230;2024-03-06T06:33:25;-12706.79;;;4.40;100.00
19674;BME280;9986;50.610;7.230;2024-03-06T06:38:38;-13997.30;;;4.38;100.00
19674;BME280;9986;50.610;7.230;2024-03-06T06:43:52;-15124.60;;;4.28;100.00
19674;BME280;9986;50.610;7.230;2024-03-06T06:54:20;-16413.33;;;4.23;100.00
19674;BME280;9986;50.610;7.230;2024-03-06T06:59:33;-16897.66;;;4.28;100.00
19674;BME280;9986;50.610;7.230;2024-03-06T07:07:29;-16573.51;;;4.18;100.00
19674;BME280;9986;50.610;7.230;2024-03-06T07:23:26;-17542.91;;;4.31;100.00
19674;BME280;9986;50.610;7.230;2024-03-06T07:28:39;-17866.00;;;4.35;100.00
19674;BME280;9986;50.610;7.230;2024-03-06T07:33:48;-17705.62;;;4.39;100.00
19674;BME280;9986;50.610;7.230;2024-03-06T07:41:39;-17223.11;;;4.43;100.00
19674;BME280;9986;50.610;7.230;2024-03-06T07:49:33;-18994.54;;;4.39;100.00
19674;BME280;9986;50.610;7.230;2024-03-06T08:05:34;-17541.02;;;4.22;100.00
19674;BME280;9986;50.610;7.230;2024-03-06T08:10:41;-19962.19;;;4.45;100.00
19674;BME280;9986;50.610;7.230;2024-03-06T08:23:58;-20772.27;;;4.63;100.00
19674;BME280;9986;50.610;7.230;2024-03-06T08:34:27;-19488.00;;;4.81;100.00
19674;BME280;9986;50.610;7.230;2024-03-06T09:11:57;-18530.61;;;5.24;100.00
19674;BME280;9986;50.610;7.230;2024-03-06T09:19:58;-18052.71;;;5.52;100.00
19674;BME280;9986;50.610;7.230;2024-03-06T09:27:52;-17891.40;;;5.53;100.00
19674;BME280;9986;50.610;7.230;2024-03-06T09:35:50;-16442.34;;;5.74;100.00
19674;BME280;9986;50.610;7.230;2024-03-06T09:46:27;-13858.05;;;5.85;100.00
19674;BME280;9986;50.610;7.230;2024-03-06T09:51:43;-12887.15;;;5.81;100.00
19674;BME280;9986;50.610;7.230;2024-03-06T09:59:35;-13211.27;;;5.86;100.00
19674;BME280;9986;50.610;7.230;2024-03-06T10:07:27;-10299.38;;;5.96;100.00
19674;BME280;9986;50.610;7.230;2024-03-06T10:12:40;-8356.66;;;6.11;100.00
19674;BME280;9986;50.610;7.230;2024-03-06T10:17:54;-6898.38;;;6.28;100.00
19674;BME280;9986;50.610;7.230;2024-03-06T10:23:05;-3815.39;;;6.41;100.00
19674;BME280;9986;50.610;7.230;2024-03-06T10:31:05;2363.27;;;6.66;100.00
19674;BME280;9986;50.610;7.230;2024-03-06T10:36:20;15737.64;;;6.74;100.00
19674;BME280;9986;50.610;7.230;2024-03-06T11:28:47;145128.19;;;9.35;100.00
19674;BME280;9986;50.610;7.230;2024-03-06T11:42:15;145216.09;;;9.70;100.00
19674;BME280;9986;50.610;7.230;2024-03-06T11:58:14;145545.50;;;11.00;100.00
19674;BME280;9986;50.610;7.230;2024-03-06T12:06:01;145599.61;;;11.21;100.00
19674;BME280;9986;50.610;7.230;2024-03-06T12:11:15;145847.64;;;12.19;100.00
19674;BME280;9986;50.610;7.230;2024-03-06T12:16:30;145961.03;;;12.64;100.00
19674;BME280;9986;50.610;7.230;2024-03-06T12:21:43;145924.45;;;12.50;100.00
19674;BME280;9986;50.610;7.230;2024-03-06T12:27:01;145862.77;;;12.25;100.00
19674;BME280;9986;50.610;7.230;2024-03-06T12:32:19;146026.59;;;12.90;100.00
19674;BME280;9986;50.610;7.230;2024-03-06T12:40:24;145882.91;;;12.33;100.00
19674;BME280;9986;50.610;7.230;2024-03-06T12:56:19;145661.28;;;11.46;100.00
19674;BME280;9986;50.610;7.230;2024-03-06T13:01:32;145671.33;;;11.50;100.00
19674;BME280;9986;50.610;7.230;2024-03-06T13:09:25;145694.06;;;11.59;100.00
19674;BME280;9986;50.610;7.230;2024-03-06T13:14:38;145651.20;;;11.42;100.00
19674;BME280;9986;50.610;7.230;2024-03-06T13:35:44;146015.20;;;12.86;100.00
19674;BME280;9986;50.610;7.230;2024-03-06T13:40:58;146042.97;;;12.97;100.00
19674;BME280;9986;50.610;7.230;2024-03-06T13:48:57;146182.89;;;13.52;100.00
19674;BME280;9986;50.610;7.230;2024-03-06T14:04:44;145935.78;;;12.54;100.00
19674;BME280;9986;50.610;7.230;2024-03-06T14:09:57;145971.06;;;12.68;100.00
19674;BME280;9986;50.610;7.230;2024-03-06T14:20:26;145870.28;;;12.28;100.00
19674;BME280;9986;50.610;7.230;2024-03-06T14:25:35;145889.19;;;12.36;100.00
19674;BME280;9986;50.610;7.230;2024-03-06T14:30:50;145887.95;;;12.35;100.00
19674;BME280;9986;50.610;7.230;2024-03-06T14:36:04;145920.70;;;12.48;100.00
19674;BME280;9986;50.610;7.230;2024-03-06T14:57:07;145837.55;;;12.15;100.00
19674;BME280;9986;50.610;7.230;2024-03-06T15:02:20;145806.09;;;12.03;100.00
19674;BME280;9986;50.610;7.230;2024-03-06T15:07:31;145798.53;;;12.00;100.00
19674;BME280;9986;50.610;7.230;2024-03-06T15:26:05;145996.31;;;12.78;100.00
19674;BME280;9986;50.610;7.230;2024-03-06T15:36:33;146078.27;;;13.10;100.00
19674;BME280;9986;50.610;7.230;2024-03-06T15:49:44;146113.56;;;13.24;100.00
19674;BME280;9986;50.610;7.230;2024-03-06T16:05:41;145998.83;;;12.79;100.00
19674;BME280;9986;50.610;7.230;2024-03-06T16:29:33;145900.56;;;12.40;100.00
19674;BME280;9986;50.610;7.230;2024-03-06T16:34:46;145853.92;;;12.22;100.00
19674;BME280;9986;50.610;7.230;2024-03-06T16:58:39;145782.16;;;11.94;100.00
19674;BME280;9986;50.610;7.230;2024-03-06T17:17:11;145641.13;;;11.38;100.00
19674;BME280;9986;50.610;7.230;2024-03-06T17:22:24;145600.91;;;11.22;100.00
19674;BME280;9986;50.610;7.230;2024-03-06T17:35:39;145481.39;;;10.75;100.00
19674;BME280;9986;50.610;7.230;2024-03-06T17:40:52;145384.56;;;10.36;100.00
19674;BME280;9986;50.610;7.230;2024-03-06T17:46:06;145358.14;;;10.26;100.00
19674;BME280;9986;50.610;7.230;2024-03-06T17:51:18;145388.36;;;10.38;100.00
19674;BME280;9986;50.610;7.230;2024-03-06T17:59:11;145374.48;;;10.32;100.00
19674;BME280;9986;50.610;7.230;2024-03-06T18:04:26;145335.53;;;10.17;100.00
19674;BME280;9986;50.610;7.230;2024-03-06T18:15:04;145314.16;;;10.09;100.00
19674;BME280;9986;50.610;7.230;2024-03-06T18:30:53;145258.83;;;9.87;100.00
19674;BME280;9986;50.610;7.230;2024-03-06T18:38:52;145246.25;;;9.82;100.00
19674;BME280;9986;50.610;7.230;2024-03-06T18:44:05;145232.44;;;9.76;100.00
19674;BME280;9986;50.610;7.230;2024-03-06T18:49:17;145218.61;;;9.71;100.00
19674;BME280;9986;50.610;7.230;2024-03-06T18:59:57;145233.72;;;9.77;100.00
19674;BME280;9986;50.610;7.230;2024-03-06T19:10:42;145208.55;;;9.67;100.00
19674;BME280;9986;50.610;7.230;2024-03-06T19:15:52;145189.75;;;9.59;100.00
19674;BME280;9986;50.610;7.230;2024-03-06T19:26:24;145190.98;;;9.60;100.00
19674;BME280;9986;50.610;7.230;2024-03-06T19:31:37;145199.77;;;9.63;100.00
19674;BME280;9986;50.610;7.230;2024-03-06T19:36:46;145175.89;;;9.54;100.00
19674;BME280;9986;50.610;7.230;2024-03-06T19:44:38;145160.84;;;9.48;100.00
19674;BME280;9986;50.610;7.230;2024-03-06T19:49:51;145140.77;;;9.40;100.00
19674;BME280;9986;50.610;7.230;2024-03-06T19:57:50;145131.94;;;9.36;100.00
19674;BME280;9986;50.610;7.230;2024-03-06T20:08:25;145032.77;;;8.97;100.00
19674;BME280;9986;50.610;7.230;2024-03-06T20:13:38;145025.22;;;8.94;100.00
19674;BME280;9986;50.610;7.230;2024-03-06T20:48:21;144844.53;;;8.23;100.00
19674;BME280;9986;50.610;7.230;2024-03-06T20:53:34;144831.97;;;8.18;100.00
19674;BME280;9986;50.610;7.230;2024-03-06T20:58:42;144834.47;;;8.19;100.00
19674;BME280;9986;50.610;7.230;2024-03-06T21:06:32;144863.30;;;8.30;100.00
19674;BME280;9986;50.610;7.230;2024-03-06T21:11:42;144852.02;;;8.26;100.00
19674;BME280;9986;50.610;7.230;2024-03-06T21:16:55;144809.34;;;8.09;100.00
19674;BME280;9986;50.610;7.230;2024-03-06T21:24:48;144800.53;;;8.05;100.00
19674;BME280;9986;50.610;7.230;2024-03-06T21:51:18;144760.44;;;7.89;100.00
19674;BME280;9986;50.610;7.230;2024-03-06T21:59:09;144716.50;;;7.72;100.00
19674;BME280;9986;50.610;7.230;2024-03-06T22:04:22;144676.42;;;7.56;100.00
19674;BME280;9986;50.610;7.230;2024-03-06T22:14:57;144658.84;;;7.49;100.00
19674;BME280;9986;50.610;7.230;2024-03-06T22:33:34;144612.47;;;7.31;100.00
19674;BME280;9986;50.610;7.230;2024-03-06T22:46:35;144536.03;;;7.00;100.00
19674;BME280;9986;50.610;7.230;2024-03-06T22:51:43;144493.42;;;6.83;100.00
19674;BME280;9986;50.610;7.230;2024-03-06T22:59:41;144437.03;;;6.61;100.00
19674;BME280;9986;50.610;7.230;2024-03-06T23:10:12;144443.34;;;6.63;100.00
19674;BME280;9986;50.610;7.230;2024-03-06T23:15:25;144373.19;;;6.36;100.00
19674;BME280;9986;50.610;7.230;2024-03-06T23:20:38;144393.22;;;6.44;100.00
19674;BME280;9986;50.610;7.230;2024-03-06T23:31:10;144380.72;;;6.39;100.00
19674;BME280;9986;50.610;7.230;2024-03-06T23:44:22;144324.38;;;6.16;100.00
